AirNav   Air Wisconsin Up To $57,000 Bonus
 
 1016 users online  

17M Magee Municipal Airport
Magee, Mississippi, USA

GOING TO MAGEE?


FAA INFORMATION EFFECTIVE 26 JANUARY 2023

Location

FAA Identifier: 17M
Lat/Long: 31-51-45.9540N 089-48-02.2120W
31-51.765900N 089-48.036867W
31.8627650,-89.8006144
(estimated)
Elevation: 555.8 ft. / 169.4 m (surveyed)
Variation: 01W (2015)
From city: 3 miles W of MAGEE, MS
Time zone: UTC -6 (UTC -5 during Daylight Saving Time)
Zip code: 39111

Airport Operations

Airport use: Open to the public
Control tower: no
ARTCC: MEMPHIS CENTER
FSS: GREENWOOD FLIGHT SERVICE STATION
NOTAMs facility: GWO (NOTAM-D service available)
Attendance: CONTINUOUS
Wind indicator: lighted
Segmented circle: yes
Lights: ACTVT MIRL RWY 18/36 - CTAF.
Beacon: white-green (lighted land airport)
Operates sunset to sunrise.

Airport Communications

CTAF/UNICOM: 122.8
  • APCH/DEP SVC PRVDD BY MEMPHIS ARTCC ON FREQS 125.975/307.275 (MERIDIAN RCAG).

Nearby radio navigation aids

VOR radial/distance  VOR name  Freq  Var
LBYr313/35.6EATON VORTAC110.6005E
MHZr157/37.5MAGNOLIA VORTAC113.2001W

Airport Services

Fuel available: 100LL
100LL:FUEL AVBL 24 HRS WITH CREDIT CARD.
Parking: tiedowns
Airframe service: NONE
Powerplant service: NONE
Bottled oxygen: NONE
Bulk oxygen: NONE

Runway Information

Runway 18/36

Dimensions: 3103 x 60 ft. / 946 x 18 m
Surface: asphalt, in excellent condition
Weight bearing capacity: 
PCN 15 /F/C/Y/T
Single wheel: 19.0
Runway edge lights: medium intensity
RUNWAY 18  RUNWAY 36
Latitude: 31-52.021797N31-51.510000N
Longitude: 089-48.039975W089-48.033763W
Elevation: 553.2 ft.548.9 ft.
Traffic pattern: leftleft
Runway heading: 180 magnetic, 179 true000 magnetic, 359 true
Markings: nonprecision, in good conditionnonprecision, in good condition
Visual slope indicator: 2-light PAPI on left (3.00 degrees glide path)
Touchdown point: yes, no lightsyes, no lights
Obstructions: 50 ft. trees, 1250 ft. from runway, 250 ft. left of centerline, 21:1 slope to clear80 ft. trees, 2500 ft. from runway, 28:1 slope to clear

Airport Ownership and Management from official FAA records

Ownership: Publicly-owned
Owner: CITY OF MAGEE
123 N MAIN ST
MAGEE, MS 39111
Phone 601-849-3344
Manager: ASHLEY STEELE
111 PRINE DR
MAGEE, MS 39111
Phone 601-382-5752

Airport Operational Statistics

Aircraft based on the field: 8
Single engine airplanes: 8
    
Aircraft operations: avg 110/week *
59% transient general aviation
37% local general aviation
4% military
* for 12-month period ending 11 May 2022

Additional Remarks

RWY 36 4 FT DEEP DITCH 250 FT FM THR.
FOR CD CTC MEMPHIS ARTCC AT 901-368-8453/8449.

Instrument Procedures

NOTE: All procedures below are presented as PDF files. If you need a reader for these files, you should download the free Adobe Reader.

NOT FOR NAVIGATION. Please procure official charts for flight.
FAA instrument procedures published for use from 26 January 2023 at 0901Z to 23 February 2023 at 0900z.

 
IAPs - Instrument Approach Procedures
RNAV (GPS) RWY 18   download
RNAV (GPS) RWY 36   download
NOTE: Special Take-Off Minimums/Departure Procedures apply   download

Other nearby airports with instrument procedures:

M43 - Prentiss-Jefferson Davis County Airport (17 nm S)
M11 - Copiah County Airport (29 nm W)
KJAN - Jackson-Medgar Wiley Evers International Airport (30 nm NW)
KPIB - Hattiesburg/Laurel Regional Airport (34 nm SE)
0R0 - Columbia/Marion County Airport (34 nm S)
 
Loc | Ops | Rwys | IFR | FBO | Links
Com | Nav | Svcs | Stats | Notes
Area around 17M (Magee Municipal Airport)
 
Road maps at: MapQuest Bing Google
 
Aerial photo
WARNING: Photo may not be current or correct
Aerial photo of 17M (Magee Municipal Airport)
Photo by Winnfort Myles
Photo taken 17-Oct-2009

Do you have a better or more recent aerial photo of Magee Municipal Airport that you would like to share? If so, please send us your photo.

 
Sectional chart

 
Airport distance calculator
Flying to Magee Municipal Airport? Find the distance to fly.

From to 17M

Sunrise and sunset
Times for 30-Jan-2023
 Local
(UTC-6)
 Zulu
(UTC)
Morning civil twilight06:2912:29
Sunrise06:5512:55
Sunset17:3023:30
Evening civil twilight17:5623:56

Current date and time
Zulu (UTC)  30-Jan-2023 13:45:36
Local (UTC-6)  30-Jan-2023 07:45:36
 
METAR
KJAN 
31nm NW 
301308Z 02006KT 1/2SM R16L/6000VP6000FT FG BKN003 OVC007 14/13 A3015 RMK AO2 T01390133
KLUL 
34nm SE 
301335Z AUTO 00000KT 3/4SM BR OVC004 15/ A3014 RMK A02 T0150////
K0R0 
34nm S 
301335Z AUTO 00000KT 1/4SM FG OVC002 16/16 A3015 RMK AO2
KPIB 
34nm SE 
301312Z AUTO 00000KT 1/2SM FG OVC004 15/ A3013 RMK AO2 RVRNO
K1R7 
35nm SW 
301335Z AUTO 00000KT 1/4SM FG OVC003 15/15 A3015 RMK AO2 PWINO
KHKS 
35nm NW 
301320Z 01005KT 1 1/4SM BR OVC004 14/13 A3015 RMK AO2 T01390133
KMBO 
38nm NW 
301335Z AUTO VRB03KT 1SM BR OVC003 13/13 A3015 RMK AO2
KJVW 
41nm NW 
301315Z AUTO 00000KT 2 1/2SM BR OVC003 14/14 A3014 RMK AO2
KHBG 
46nm SE 
301253Z AUTO 00000KT 1/4SM FG VV003 16/16 A3011 RMK AO2 SLP195 T01560156
TAF
KJAN 
31nm NW 
301153Z 3012/3112 00000KT 3SM BR OVC002 TEMPO 3012/3014 1SM BR FM301500 36005KT 4SM BR OVC003 FM310100 36009KT 2SM BR OVC003
KPIB 
34nm SE 
301120Z 3012/3112 36003KT 1SM BR OVC002 TEMPO 3012/3014 1/2SM FG VV002 FM301600 02004KT 4SM BR OVC003 FM310700 01003KT 2SM BR OVC003
KHKS 
35nm NW 
301153Z 3012/3112 33003KT 3SM BR SCT002 OVC006 TEMPO 3012/3014 1SM BR OVC002 FM301500 35005KT 4SM BR OVC003 FM310100 36007KT 2SM BR OVC003
NOTAMs
Click for the latest NOTAMs
NOTAMs are issued by the DoD/FAA and will open in a separate window not controlled by AirNav.

 

 
 

FBO, Fuel Providers, and Aircraft Ground Support

  
 Business Name 
 
 Contact 
 
 Services / Description 
 
Fuel Prices
 
Comments
  
Magee Municipal Airport 601-849-3571
no information available

If you are affiliated with Magee Municipal Airport and would like to show here your services, contact info, web link, logo, and more, click here
100LL
SS $6.88 
 Updated 18-Aug-2022
 
   1 read write
SS=Self service
Update Fuel Prices
 

Would you like to see your business listed on this page?

 If your business provides an interesting product or service to pilots, flight crews, aircraft, or users of the Magee Municipal Airport, you should consider listing it here.  To start the listing process, click on the button below
 
Add a business
 

Other Pages about Magee Municipal Airport

Update a link
 
Copyright © AirNav, LLC. All rights reserved. Privacy Policy  Contact